Time;durP1;ratioP1;P1;durP2;ratioP2;P2;SDS_P1;SDS_P2;PMS_P1;PMS_P2;Temp;Humidity;BMP_temperature;BMP_pressure;BME280_temperature;BME280_humidity;BME280_pressure;Samples;Min_cycle;Max_cycle;Signal;HPM_P1;HPM_P2
2023/01/04 04:01:49;;;;;;;1.08;0.73;;;18.00;53.10;;;;;;5224246;23;45936;-60
2023/01/04 04:09:43;;;;;;;1.50;1.10;;;18.00;53.10;;;;;;4896424;28;45522;-60
2023/01/04 04:12:09;;;;;;;2.22;1.02;;;18.00;53.20;;;;;;4906247;28;45116;-62
2023/01/04 04:14:34;;;;;;;1.05;0.95;;;18.00;53.10;;;;;;4890752;28;44899;-61
2023/01/04 04:17:00;;;;;;;1.13;1.02;;;18.00;53.10;;;;;;4908588;28;45314;-61
2023/01/04 04:19:25;;;;;;;1.02;0.93;;;18.00;53.10;;;;;;4909348;28;45554;-60
2023/01/04 04:21:51;;;;;;;1.20;1.10;;;18.00;53.10;;;;;;4888969;28;45712;-61
2023/01/04 04:24:18;;;;;;;1.60;1.17;;;18.00;53.20;;;;;;4892683;28;45188;-62
2023/01/04 04:26:44;;;;;;;1.48;0.93;;;18.00;53.20;;;;;;4906355;28;46568;-61
2023/01/04 04:29:09;;;;;;;1.40;1.10;;;17.90;53.20;;;;;;4881618;28;45647;-61
2023/01/04 04:31:35;;;;;;;0.75;0.75;;;17.90;53.10;;;;;;4911393;28;46053;-60
2023/01/04 04:34:00;;;;;;;1.10;0.90;;;17.90;53.20;;;;;;4906961;28;45387;-61
2023/01/04 04:36:26;;;;;;;1.55;1.00;;;17.90;53.20;;;;;;4909619;28;44884;-61
2023/01/04 04:38:51;;;;;;;1.50;0.77;;;17.90;53.20;;;;;;4905289;28;45601;-62
2023/01/04 04:44:01;;;;;;;1.00;0.80;;;17.90;53.20;;;;;;4911036;28;45526;-61
2023/01/04 04:46:26;;;;;;;1.10;1.00;;;17.90;53.20;;;;;;4911058;28;45588;-61
2023/01/04 04:48:52;;;;;;;0.95;0.80;;;17.80;53.20;;;;;;4906076;28;45005;-60
2023/01/04 04:51:17;;;;;;;1.13;0.80;;;17.80;53.20;;;;;;4910272;28;46516;-61
2023/01/04 04:53:43;;;;;;;0.80;0.80;;;17.80;53.20;;;;;;4910002;28;45256;-61
2023/01/04 04:56:09;;;;;;;1.15;1.00;;;17.80;53.20;;;;;;4907295;28;45086;-61
2023/01/04 04:58:34;;;;;;;0.95;0.85;;;17.80;53.80;;;;;;4913703;28;45277;-60
2023/01/04 05:01:00;;;;;;;0.93;0.82;;;17.80;53.20;;;;;;4889074;28;46185;-59
2023/01/04 05:03:25;;;;;;;1.45;1.17;;;17.80;53.30;;;;;;4910622;28;45057;-62
2023/01/04 05:05:51;;;;;;;1.30;1.00;;;17.80;53.30;;;;;;4910653;28;45587;-61
2023/01/04 05:08:16;;;;;;;1.25;0.90;;;17.80;53.20;;;;;;4913477;28;45232;-60
2023/01/04 05:10:42;;;;;;;1.23;1.13;;;17.80;53.20;;;;;;4911123;28;45136;-60
2023/01/04 05:13:11;;;;;;;1.20;1.10;;;17.80;53.20;;;;;;4899632;28;45405;-60
2023/01/04 05:15:43;;;;;;;1.63;1.15;;;17.80;53.20;;;;;;4909019;28;45130;-59
2023/01/04 05:18:10;;;;;;;1.23;0.93;;;17.80;53.20;;;;;;4911523;28;45235;-60
2023/01/04 05:20:36;;;;;;;1.63;1.10;;;17.80;53.20;;;;;;4910672;28;45423;-62
2023/01/04 05:23:01;;;;;;;1.20;1.10;;;17.80;53.20;;;;;;4905846;28;45616;-62
2023/01/04 05:25:27;;;;;;;0.70;0.70;;;17.80;53.20;;;;;;4914151;28;45455;-62
2023/01/04 05:27:52;;;;;;;1.38;1.10;;;17.80;53.20;;;;;;4911630;28;45463;-62
2023/01/04 05:33:03;;;;;;;0.88;0.88;;;17.70;53.20;;;;;;4909177;28;45003;-61
2023/01/04 05:35:28;;;;;;;1.08;0.93;;;17.70;53.20;;;;;;4915500;28;45589;-62
2023/01/04 05:37:54;;;;;;;1.30;0.90;;;17.70;53.20;;;;;;4908685;28;44967;-60
2023/01/04 05:40:19;;;;;;;1.10;1.00;;;17.70;53.20;;;;;;4907079;28;47020;-61
2023/01/04 05:42:45;;;;;;;1.27;1.00;;;17.70;53.20;;;;;;4908408;28;45500;-62
2023/01/04 05:45:10;;;;;;;0.80;0.80;;;17.70;53.20;;;;;;4911840;28;45314;-61
2023/01/04 05:47:36;;;;;;;0.80;0.80;;;17.70;53.20;;;;;;4910089;28;45261;-62
2023/01/04 05:50:02;;;;;;;1.13;0.90;;;17.70;53.20;;;;;;4901888;28;46040;-60
2023/01/04 05:52:27;;;;;;;1.10;1.00;;;17.70;53.20;;;;;;4908811;28;44967;-61
2023/01/04 05:54:53;;;;;;;1.27;0.90;;;17.60;53.10;;;;;;4913857;28;45426;-61
2023/01/04 05:57:18;;;;;;;0.90;0.80;;;17.70;53.20;;;;;;4910991;28;45647;-62
2023/01/04 05:59:44;;;;;;;1.02;0.93;;;17.60;53.10;;;;;;4913789;28;45233;-61
2023/01/04 06:02:21;;;;;;;1.42;1.10;;;17.60;53.20;;;;;;4908660;28;45393;-62
2023/01/04 06:04:46;;;;;;;1.73;1.17;;;17.60;53.20;;;;;;4893599;28;45356;-61
2023/01/04 06:07:12;;;;;;;1.20;1.08;;;17.60;53.20;;;;;;4897983;28;45088;-62
2023/01/04 06:09:38;;;;;;;0.85;0.85;;;17.60;53.20;;;;;;4898165;28;46020;-62
2023/01/04 06:12:03;;;;;;;0.82;0.82;;;17.60;53.20;;;;;;4910767;28;45537;-62
2023/01/04 06:14:29;;;;;;;0.75;0.70;;;17.60;53.20;;;;;;4914136;28;46093;-62
2023/01/04 06:16:54;;;;;;;0.90;0.82;;;17.60;53.20;;;;;;4909733;28;45463;-62
2023/01/04 06:19:20;;;;;;;0.70;0.65;;;17.60;53.80;;;;;;4908460;28;45526;-62
2023/01/04 06:21:45;;;;;;;1.33;1.10;;;17.60;53.20;;;;;;4905875;28;45335;-62
2023/01/04 06:24:11;;;;;;;1.30;1.08;;;17.60;53.20;;;;;;4913404;28;45068;-61
2023/01/04 06:26:37;;;;;;;1.40;1.02;;;17.60;53.20;;;;;;4890553;28;45850;-62
2023/01/04 06:29:02;;;;;;;1.60;1.02;;;17.60;53.20;;;;;;4906484;28;46738;-62
2023/01/04 06:31:28;;;;;;;0.80;0.80;;;17.60;53.20;;;;;;4898528;28;44680;-62
2023/01/04 06:33:54;;;;;;;1.38;1.10;;;17.50;53.20;;;;;;4910459;28;45355;-61
2023/01/04 06:36:20;;;;;;;1.40;0.88;;;17.50;53.20;;;;;;4904694;28;45397;-62
2023/01/04 06:38:45;;;;;;;1.00;0.90;;;17.50;53.20;;;;;;4909905;28;46291;-62
2023/01/04 06:41:11;;;;;;;1.50;1.10;;;17.50;53.20;;;;;;4911402;28;44886;-62
2023/01/04 06:43:36;;;;;;;0.63;0.63;;;17.50;53.20;;;;;;4897370;28;45472;-62
2023/01/04 06:46:02;;;;;;;0.80;0.80;;;17.50;53.20;;;;;;4909453;28;45249;-61
2023/01/04 06:48:28;;;;;;;1.30;1.00;;;17.50;53.30;;;;;;4912304;28;45409;-61
2023/01/04 06:50:53;;;;;;;1.23;1.05;;;17.50;53.30;;;;;;4909760;28;44830;-62
2023/01/04 06:53:19;;;;;;;1.00;0.90;;;17.50;53.30;;;;;;4916046;28;45388;-62
2023/01/04 06:55:45;;;;;;;10.85;3.95;;;17.50;53.30;;;;;;4914383;28;45313;-62
2023/01/04 06:58:10;;;;;;;6.22;5.20;;;17.20;50.90;;;;;;4893984;28;46639;-63
2023/01/04 07:00:36;;;;;;;6.15;5.38;;;16.70;50.10;;;;;;4914916;28;45500;-64
2023/01/04 07:03:01;;;;;;;6.55;4.90;;;16.50;50.60;;;;;;4910026;28;45585;-63
2023/01/04 07:05:27;;;;;;;4.93;4.15;;;16.50;50.50;;;;;;4910613;28;45123;-63
2023/01/04 07:07:52;;;;;;;4.45;3.30;;;16.70;51.40;;;;;;4913338;28;46479;-62
2023/01/04 07:10:18;;;;;;;3.88;3.47;;;16.90;51.20;;;;;;4896620;28;45396;-62
2023/01/04 07:12:43;;;;;;;3.28;2.80;;;17.10;50.70;;;;;;4894789;28;44969;-62
2023/01/04 07:15:09;;;;;;;2.80;2.50;;;17.40;50.40;;;;;;4905480;28;45694;-62
2023/01/04 07:17:35;;;;;;;2.40;2.10;;;17.60;50.10;;;;;;4908214;28;46104;-62
2023/01/04 07:20:00;;;;;;;1.90;1.77;;;17.80;49.90;;;;;;4906295;28;45247;-62
2023/01/04 07:22:26;;;;;;;1.80;1.65;;;18.10;49.70;;;;;;4909075;28;45528;-63
2023/01/04 07:24:51;;;;;;;2.28;1.40;;;18.20;49.50;;;;;;4905020;28;45552;-63
2023/01/04 07:27:17;;;;;;;1.63;1.50;;;18.50;49.40;;;;;;4902319;28;46438;-62
2023/01/04 07:29:43;;;;;;;1.83;1.38;;;18.60;49.30;;;;;;4913295;28;45469;-62
2023/01/04 07:32:09;;;;;;;1.70;1.20;;;18.70;49.00;;;;;;4908292;28;45102;-61
2023/01/04 07:34:35;;;;;;;1.23;1.08;;;18.90;49.00;;;;;;4907941;28;45298;-63
2023/01/04 07:37:01;;;;;;;1.02;0.93;;;19.10;48.90;;;;;;4911543;28;45752;-63
2023/01/04 07:39:26;;;;;;;1.45;1.10;;;19.20;48.80;;;;;;4915420;28;45295;-64
2023/01/04 07:41:52;;;;;;;1.67;0.93;;;19.40;48.70;;;;;;4908733;28;45547;-64
2023/01/04 07:44:18;;;;;;;0.95;0.90;;;19.50;48.60;;;;;;4914132;28;45595;-65
2023/01/04 07:46:43;;;;;;;1.02;0.90;;;19.70;48.50;;;;;;4912264;28;46315;-64
2023/01/04 07:49:14;;;;;;;1.63;1.20;;;19.80;48.40;;;;;;4904536;28;45538;-66
2023/01/04 07:51:39;;;;;;;1.63;1.08;;;20.00;48.20;;;;;;4908538;28;45240;-62
2023/01/04 07:54:05;;;;;;;1.58;0.90;;;20.10;48.20;;;;;;4912607;28;45338;-61
2023/01/04 07:56:30;;;;;;;0.75;0.75;;;20.10;48.10;;;;;;4909181;28;46065;-64
2023/01/04 07:58:58;;;;;;;1.10;0.90;;;20.10;48.20;;;;;;4915056;28;45572;-63
2023/01/04 08:01:24;;;;;;;3.13;0.80;;;20.10;48.40;;;;;;4903551;28;45584;-63
2023/01/04 08:03:50;;;;;;;0.95;0.80;;;20.20;48.40;;;;;;4907672;28;44896;-65
2023/01/04 08:06:16;;;;;;;0.88;0.85;;;20.30;48.30;;;;;;4906351;28;45566;-64
2023/01/04 08:08:41;;;;;;;0.88;0.70;;;20.40;48.20;;;;;;4915779;28;45402;-63
2023/01/04 08:11:09;;;;;;;0.57;0.57;;;20.60;48.10;;;;;;4892111;28;44881;-65
2023/01/04 08:13:34;;;;;;;0.70;0.65;;;20.70;48.00;;;;;;4911527;28;45363;-65
2023/01/04 08:16:00;;;;;;;0.85;0.82;;;20.90;47.80;;;;;;4909488;28;45403;-64
2023/01/04 08:18:26;;;;;;;0.75;0.60;;;21.00;47.70;;;;;;4909102;28;45783;-63
2023/01/04 08:21:01;;;;;;;0.77;0.77;;;21.10;47.60;;;;;;4892235;28;45431;-64
2023/01/04 08:23:26;;;;;;;1.00;0.70;;;21.30;47.40;;;;;;4908232;28;44998;-65
2023/01/04 08:25:51;;;;;;;0.40;0.40;;;21.40;47.50;;;;;;4911733;28;45650;-64
2023/01/04 08:28:17;;;;;;;0.60;0.60;;;21.50;47.40;;;;;;4905453;28;45125;-64
2023/01/04 08:30:42;;;;;;;0.80;0.68;;;21.50;47.30;;;;;;4907756;28;46291;-63
2023/01/04 08:33:13;;;;;;;1.15;0.60;;;21.60;47.30;;;;;;4906718;28;45446;-63
2023/01/04 08:35:38;;;;;;;0.60;0.60;;;21.70;47.10;;;;;;4906015;28;45989;-65
2023/01/04 08:38:04;;;;;;;0.77;0.73;;;21.80;47.10;;;;;;4902405;28;45327;-65
2023/01/04 08:40:29;;;;;;;0.63;0.60;;;21.90;47.00;;;;;;4907231;28;45573;-63
2023/01/04 08:42:55;;;;;;;0.50;0.50;;;22.00;47.00;;;;;;4908279;28;45039;-63
2023/01/04 08:45:20;;;;;;;0.68;0.50;;;22.10;46.90;;;;;;4906669;28;46271;-63
2023/01/04 08:47:46;;;;;;;0.77;0.60;;;22.20;46.80;;;;;;4907468;28;45329;-63
2023/01/04 08:50:13;;;;;;;1.98;0.60;;;22.30;46.70;;;;;;4909096;28;44960;-64
2023/01/04 08:52:38;;;;;;;1.05;0.80;;;22.40;46.60;;;;;;4914767;28;45158;-64
2023/01/04 08:55:04;;;;;;;1.00;0.60;;;22.40;46.50;;;;;;4905577;28;45872;-64
2023/01/04 08:57:30;;;;;;;0.75;0.50;;;22.60;46.60;;;;;;4908168;28;45707;-63
2023/01/04 08:59:55;;;;;;;4.97;0.50;;;22.60;46.40;;;;;;4906952;28;45154;-65
2023/01/04 09:02:22;;;;;;;0.60;0.45;;;22.70;46.30;;;;;;4907802;28;45300;-64
2023/01/04 09:04:48;;;;;;;0.70;0.63;;;22.80;46.30;;;;;;4929816;28;45373;-63
2023/01/04 09:07:14;;;;;;;1.23;0.60;;;22.90;46.20;;;;;;4896649;28;45021;-63
2023/01/04 09:09:40;;;;;;;0.43;0.40;;;22.90;46.10;;;;;;4892516;28;44937;-63
2023/01/04 09:12:05;;;;;;;0.55;0.50;;;23.00;46.00;;;;;;4897401;28;44664;-63
2023/01/04 09:14:31;;;;;;;0.40;0.40;;;23.10;46.00;;;;;;4910358;28;46963;-65
2023/01/04 09:16:56;;;;;;;0.60;0.52;;;23.20;45.90;;;;;;4911938;28;45232;-63
2023/01/04 09:19:22;;;;;;;1.27;0.45;;;23.30;45.80;;;;;;4913742;28;44907;-65
2023/01/04 09:21:48;;;;;;;0.60;0.40;;;23.30;45.80;;;;;;4904717;28;45270;-65
2023/01/04 09:24:13;;;;;;;0.60;0.60;;;23.40;45.70;;;;;;4904027;28;45282;-66
2023/01/04 09:26:39;;;;;;;0.52;0.50;;;23.50;45.70;;;;;;4911278;28;45196;-63
2023/01/04 09:29:05;;;;;;;0.45;0.45;;;23.50;45.50;;;;;;4904289;28;45333;-64
2023/01/04 09:31:31;;;;;;;0.40;0.40;;;23.60;45.50;;;;;;4907046;28;45772;-64
2023/01/04 09:33:56;;;;;;;3.38;0.65;;;23.70;45.40;;;;;;4907232;28;46221;-64
2023/01/04 09:36:23;;;;;;;0.50;0.50;;;23.70;45.30;;;;;;4910599;28;45248;-64
2023/01/04 09:38:50;;;;;;;1.13;0.60;;;23.80;45.30;;;;;;4914880;28;45237;-64
2023/01/04 09:41:24;;;;;;;0.57;0.57;;;23.90;45.20;;;;;;4905557;28;45024;-65
2023/01/04 09:43:54;;;;;;;0.50;0.45;;;24.00;45.00;;;;;;4915589;28;46935;-64
2023/01/04 09:46:23;;;;;;;0.40;0.40;;;24.00;45.10;;;;;;4893489;28;45484;-64
2023/01/04 09:48:48;;;;;;;1.17;0.50;;;24.10;45.10;;;;;;4909054;28;45690;-62
2023/01/04 09:51:16;;;;;;;0.65;0.60;;;24.10;45.00;;;;;;4908649;28;45320;-64
2023/01/04 09:54:15;;;;;;;0.65;0.50;;;24.10;45.00;;;;;;4903363;28;46017;-64
2023/01/04 09:56:46;;;;;;;0.50;0.50;;;24.20;44.30;;;;;;4907182;28;45834;-64
2023/01/04 09:59:14;;;;;;;0.50;0.50;;;24.20;44.90;;;;;;4915207;28;46106;-64
2023/01/04 10:02:02;;;;;;;0.50;0.30;;;24.30;45.50;;;;;;4911022;28;45540;-64
2023/01/04 10:04:44;;;;;;;0.50;0.43;;;24.30;44.40;;;;;;4892412;28;45308;-64
2023/01/04 10:07:17;;;;;;;1.27;0.60;;;24.40;44.40;;;;;;4909768;28;45389;-64
2023/01/04 10:09:43;;;;;;;;;;;24.40;44.70;;;;;;4914669;28;45195;-65
2023/01/04 10:12:13;;;;;;;0.40;0.30;;;24.40;44.00;;;;;;4909358;28;45584;-64
2023/01/04 10:14:57;;;;;;;0.40;0.40;;;24.40;44.50;;;;;;4913449;28;45443;-65
2023/01/04 10:17:29;;;;;;;0.47;0.47;;;24.40;44.40;;;;;;4881762;28;45727;-63
2023/01/04 10:20:17;;;;;;;0.40;0.40;;;24.40;44.60;;;;;;4913057;28;45360;-63
2023/01/04 10:23:16;;;;;;;3.03;0.60;;;24.50;44.50;;;;;;4908072;28;45450;-63
2023/01/04 10:25:44;;;;;;;0.55;0.40;;;24.50;44.10;;;;;;4891295;28;45366;-65
2023/01/04 10:28:38;;;;;;;0.40;0.30;;;24.50;44.60;;;;;;4914687;28;45042;-64
2023/01/04 10:31:15;;;;;;;0.57;0.50;;;24.50;44.20;;;;;;4913816;28;45364;-65
2023/01/04 10:34:15;;;;;;;0.70;0.60;;;24.50;44.40;;;;;;4913274;28;45220;-63
2023/01/04 10:36:40;;;;;;;0.30;0.30;;;24.50;44.00;;;;;;4897585;28;46012;-64
2023/01/04 10:39:15;;;;;;;1.08;0.30;;;24.50;44.50;;;;;;4911693;28;45410;-66
2023/01/04 10:41:52;;;;;;;0.40;0.40;;;24.60;44.30;;;;;;4910645;28;45262;-64
2023/01/04 10:44:21;;;;;;;0.30;0.30;;;24.60;44.30;;;;;;4909064;28;45233;-65
2023/01/04 10:47:03;;;;;;;0.60;0.60;;;24.70;44.40;;;;;;4904927;28;45887;-64
2023/01/04 10:49:38;;;;;;;0.95;0.35;;;24.70;44.10;;;;;;4917745;28;45259;-63
2023/01/04 10:52:29;;;;;;;0.40;0.40;;;24.80;44.20;;;;;;4915161;28;45496;-64
2023/01/04 10:55:02;;;;;;;0.30;0.20;;;24.80;43.70;;;;;;4910385;28;45490;-64
2023/01/04 10:57:41;;;;;;;0.35;0.35;;;24.90;44.10;;;;;;4898760;28;45620;-64
2023/01/04 11:00:23;;;;;;;0.40;0.38;;;24.90;44.20;;;;;;4910297;28;45680;-63
2023/01/04 11:02:53;;;;;;;0.57;0.30;;;25.00;44.20;;;;;;4905512;28;45859;-64
2023/01/04 11:05:22;;;;;;;0.30;0.30;;;25.00;44.10;;;;;;4894867;28;45722;-65
2023/01/04 11:08:00;;;;;;;0.75;0.25;;;25.00;44.10;;;;;;4914675;28;45993;-63
2023/01/04 11:10:29;;;;;;;0.50;0.50;;;25.10;43.60;;;;;;4898342;28;45262;-63
2023/01/04 11:12:54;;;;;;;0.70;0.40;;;25.00;44.00;;;;;;4885063;28;45765;-61
2023/01/04 11:15:20;;;;;;;1.42;0.30;;;25.00;44.00;;;;;;4909878;28;45712;-62
2023/01/04 11:17:45;;;;;;;0.40;0.30;;;25.00;44.00;;;;;;4882494;28;46238;-63
2023/01/04 11:20:11;;;;;;;1.48;0.30;;;25.00;44.10;;;;;;4901083;28;44941;-63
2023/01/04 11:23:03;;;;;;;1.58;0.52;;;25.00;44.10;;;;;;4911978;28;45219;-63
2023/01/04 11:25:32;;;;;;;0.30;0.25;;;25.00;43.60;;;;;;4909381;28;44672;-63
2023/01/04 11:28:02;;;;;;;0.40;0.30;;;25.00;44.00;;;;;;4911529;28;45748;-63
2023/01/04 11:30:57;;;;;;;0.20;0.20;;;25.00;44.00;;;;;;4917161;28;45239;-61
2023/01/04 11:33:23;;;;;;;0.28;0.28;;;24.90;43.60;;;;;;4908461;28;45443;-62
2023/01/04 11:35:57;;;;;;;0.35;0.30;;;24.90;44.10;;;;;;4909854;28;45212;-62
2023/01/04 11:38:27;;;;;;;0.30;0.30;;;24.90;43.90;;;;;;4908201;28;45483;-62
2023/01/04 11:40:58;;;;;;;0.40;0.40;;;24.90;44.10;;;;;;4909466;28;45652;-62
2023/01/04 11:43:25;;;;;;;0.38;0.38;;;24.90;44.00;;;;;;4916001;28;45813;-62
2023/01/04 11:45:59;;;;;;;0.52;0.50;;;25.00;44.10;;;;;;4914851;28;45205;-62
2023/01/04 11:48:51;;;;;;;0.40;0.40;;;24.90;43.90;;;;;;4916597;28;46178;-63
2023/01/04 11:51:20;;;;;;;0.35;0.35;;;24.90;43.50;;;;;;4925174;28;45279;-62
2023/01/04 11:53:46;;;;;;;0.40;0.40;;;24.90;44.10;;;;;;4914439;28;45558;-64
2023/01/04 11:56:19;;;;;;;0.40;0.40;;;24.90;44.80;;;;;;4901105;28;45169;-65
2023/01/04 11:59:03;;;;;;;0.50;0.40;;;25.00;44.10;;;;;;4910727;28;45358;-64
2023/01/04 12:01:29;;;;;;;0.82;0.50;;;25.10;43.70;;;;;;4912006;28;45257;-65
2023/01/04 12:03:55;;;;;;;2.17;0.30;;;25.10;44.60;;;;;;4910472;28;45242;-66
2023/01/04 12:06:31;;;;;;;0.30;0.30;;;25.20;44.00;;;;;;4906438;28;45243;-64
2023/01/04 12:08:57;;;;;;;0.38;0.30;;;25.20;43.60;;;;;;4914998;28;45893;-65
2023/01/04 12:11:31;;;;;;;1.75;0.43;;;25.30;43.90;;;;;;4913712;28;45113;-65
2023/01/04 12:13:59;;;;;;;1.30;0.38;;;25.30;43.60;;;;;;4909786;28;45252;-65
2023/01/04 12:16:46;;;;;;;0.47;0.22;;;25.30;43.70;;;;;;4910207;28;45413;-64
2023/01/04 12:19:16;;;;;;;0.28;0.28;;;25.30;43.70;;;;;;4917684;28;45255;-64
2023/01/04 12:21:43;;;;;;;0.28;0.28;;;25.30;43.70;;;;;;4909605;28;45044;-65
2023/01/04 12:24:10;;;;;;;0.40;0.40;;;25.30;43.70;;;;;;4912621;28;45307;-63
2023/01/04 12:26:42;;;;;;;0.20;0.20;;;25.40;43.80;;;;;;4911753;28;46167;-65
2023/01/04 12:29:23;;;;;;;0.30;0.30;;;25.40;43.60;;;;;;4900021;28;46023;-63
2023/01/04 12:31:52;;;;;;;0.20;0.20;;;25.40;43.40;;;;;;4909663;28;45261;-64
2023/01/04 12:34:21;;;;;;;0.35;0.30;;;25.40;43.70;;;;;;4915348;28;45492;-64
2023/01/04 12:36:49;;;;;;;0.68;0.38;;;25.40;43.70;;;;;;4908431;28;45019;-63
2023/01/04 12:39:15;;;;;;;0.40;0.40;;;25.40;43.60;;;;;;4913854;28;45308;-61
2023/01/04 12:41:40;;;;;;;0.20;0.20;;;25.40;43.80;;;;;;4902423;28;45184;-62
2023/01/04 12:44:46;;;;;;;0.35;0.30;;;25.40;43.80;;;;;;4913399;28;45465;-66
2023/01/04 12:50:07;;;;;;;0.35;0.35;;;25.40;43.70;;;;;;4909706;28;45997;-64
2023/01/04 12:52:33;;;;;;;1.42;0.30;;;25.40;43.60;;;;;;4910575;28;45016;-65
2023/01/04 12:55:03;;;;;;;0.38;0.30;;;25.50;43.80;;;;;;4911405;28;44877;-65
2023/01/04 12:57:35;;;;;;;0.50;0.30;;;25.50;43.60;;;;;;4917624;28;45200;-65
2023/01/04 13:00:01;;;;;;;0.30;0.30;;;25.50;43.70;;;;;;4908288;28;45269;-64
2023/01/04 13:02:31;;;;;;;0.85;0.50;;;25.50;43.70;;;;;;4906652;28;44998;-64
2023/01/04 13:05:23;;;;;;;0.30;0.30;;;25.50;43.60;;;;;;4908080;28;46084;-64
2023/01/04 13:07:50;;;;;;;0.20;0.20;;;25.50;43.60;;;;;;4913466;28;45641;-64
2023/01/04 13:10:52;;;;;;;2.15;0.20;;;25.50;43.70;;;;;;4895277;28;47359;-63
2023/01/04 13:13:45;;;;;;;0.30;0.30;;;25.50;43.30;;;;;;4861901;28;45515;-63
2023/01/04 13:16:29;;;;;;;0.38;0.38;;;25.50;43.40;;;;;;4913072;28;44727;-64
2023/01/04 13:18:55;;;;;;;2.45;0.30;;;25.50;43.70;;;;;;4909604;28;45270;-65
2023/01/04 13:21:30;;;;;;;0.20;0.20;;;25.50;43.70;;;;;;4881266;28;46800;-65
2023/01/04 13:23:57;;;;;;;0.30;0.30;;;25.60;43.60;;;;;;4914474;28;45517;-65
2023/01/04 13:26:26;;;;;;;0.30;0.30;;;25.60;43.70;;;;;;4904401;28;45214;-65
2023/01/04 13:29:14;;;;;;;0.30;0.30;;;25.60;43.70;;;;;;4907246;28;45466;-65
2023/01/04 13:32:12;;;;;;;0.40;0.35;;;25.60;43.50;;;;;;4903487;28;46992;-64
2023/01/04 13:34:48;;;;;;;0.20;0.20;;;25.60;43.50;;;;;;4910512;28;45381;-64
2023/01/04 13:37:39;;;;;;;0.30;0.30;;;25.60;43.80;;;;;;4902100;28;45133;-65
2023/01/04 13:40:28;;;;;;;0.17;0.10;;;25.60;43.40;;;;;;4900484;28;45263;-64
2023/01/04 13:43:17;;;;;;;0.32;0.32;;;25.60;43.50;;;;;;4910512;28;45962;-65
2023/01/04 13:46:07;;;;;;;0.30;0.30;;;25.60;43.60;;;;;;4929352;28;45266;-64
2023/01/04 13:48:37;;;;;;;0.20;0.20;;;25.60;43.70;;;;;;4917888;28;44718;-65
2023/01/04 13:51:16;;;;;;;0.30;0.30;;;25.70;43.80;;;;;;4917070;28;44656;-65
2023/01/04 13:53:57;;;;;;;0.25;0.25;;;25.70;43.70;;;;;;4914414;28;45987;-63
2023/01/04 13:56:24;;;;;;;0.57;0.30;;;25.70;43.70;;;;;;4907556;28;45243;-64
2023/01/04 13:58:50;;;;;;;0.20;0.20;;;25.70;43.80;;;;;;4896112;28;45275;-64
2023/01/04 14:01:16;;;;;;;0.22;0.22;;;25.70;43.80;;;;;;4899906;28;45446;-63
2023/01/04 14:03:42;;;;;;;0.40;0.35;;;25.70;43.80;;;;;;4918729;28;45426;-64
2023/01/04 14:06:16;;;;;;;1.17;0.30;;;25.70;43.80;;;;;;4902574;28;45240;-63
2023/01/04 14:08:47;;;;;;;0.55;0.28;;;25.80;43.70;;;;;;4918419;28;45643;-63
2023/01/04 14:14:15;;;;;;;0.47;0.28;;;25.80;43.90;;;;;;4907765;28;45928;-64
2023/01/04 14:16:41;;;;;;;0.22;0.22;;;25.80;43.80;;;;;;4911233;28;45334;-63
2023/01/04 14:19:41;;;;;;;0.22;0.20;;;25.80;43.90;;;;;;4898165;28;45270;-63
2023/01/04 14:22:25;;;;;;;0.43;0.30;;;25.80;43.60;;;;;;4917900;28;45056;-63
2023/01/04 14:24:52;;;;;;;1.70;0.30;;;25.80;43.60;;;;;;4911520;28;46087;-63
2023/01/04 14:27:38;;;;;;;0.20;0.20;;;25.80;43.90;;;;;;4904687;28;45132;-63
2023/01/04 14:30:21;;;;;;;0.60;0.20;;;25.80;43.60;;;;;;4898772;28;45120;-64
2023/01/04 14:33:13;;;;;;;0.30;0.30;;;25.80;43.60;;;;;;4912139;28;44976;-63
2023/01/04 14:35:38;;;;;;;0.22;0.22;;;25.90;43.70;;;;;;4926096;28;45153;-65
2023/01/04 14:38:05;;;;;;;0.30;0.20;;;25.90;43.90;;;;;;4912942;28;45335;-64
2023/01/04 14:40:30;;;;;;;0.70;0.40;;;25.90;43.90;;;;;;4884464;28;44709;-65
2023/01/04 14:42:56;;;;;;;0.30;0.30;;;25.90;43.90;;;;;;4901518;28;45253;-64
2023/01/04 14:45:22;;;;;;;0.32;0.28;;;25.90;43.80;;;;;;4904485;28;45544;-65
2023/01/04 14:47:47;;;;;;;0.63;0.20;;;25.90;43.90;;;;;;4920705;28;45225;-64
2023/01/04 14:50:13;;;;;;;0.20;0.20;;;25.90;43.90;;;;;;4907886;28;45379;-64
2023/01/04 14:52:39;;;;;;;0.43;0.30;;;25.90;43.80;;;;;;4912943;28;45118;-64
2023/01/04 14:55:04;;;;;;;0.20;0.20;;;25.90;43.80;;;;;;4910273;28;45400;-64
2023/01/04 14:57:31;;;;;;;0.90;0.40;;;25.90;43.80;;;;;;4920320;28;45189;-64
2023/01/04 14:59:56;;;;;;;0.30;0.30;;;26.00;43.90;;;;;;4913825;28;45254;-64
2023/01/04 15:02:24;;;;;;;0.30;0.30;;;26.00;43.90;;;;;;4911687;28;47224;-64
2023/01/04 15:04:50;;;;;;;0.28;0.28;;;26.00;43.90;;;;;;4911418;28;46023;-64
2023/01/04 15:07:31;;;;;;;0.30;0.30;;;26.00;43.90;;;;;;4910783;28;45232;-63
2023/01/04 15:09:56;;;;;;;0.30;0.30;;;26.00;43.70;;;;;;4918380;28;44628;-64
2023/01/04 15:12:22;;;;;;;0.40;0.32;;;26.00;43.90;;;;;;4916684;28;45567;-64
2023/01/04 15:14:49;;;;;;;0.20;0.20;;;26.00;43.90;;;;;;4898694;28;46345;-63
2023/01/04 15:17:14;;;;;;;0.73;0.30;;;26.00;43.80;;;;;;4912226;28;45196;-64
2023/01/04 15:19:40;;;;;;;0.17;0.17;;;26.00;43.80;;;;;;4912950;28;45184;-62
2023/01/04 15:22:05;;;;;;;2.20;0.20;;;25.90;43.90;;;;;;4905922;28;45539;-62
2023/01/04 15:24:31;;;;;;;0.20;0.20;;;25.90;44.00;;;;;;4908162;28;46353;-64
2023/01/04 15:26:56;;;;;;;0.20;0.20;;;25.80;44.10;;;;;;4898870;28;44707;-64
2023/01/04 15:29:22;;;;;;;0.30;0.20;;;25.70;44.30;;;;;;4915064;28;45513;-65
2023/01/04 15:31:47;;;;;;;0.22;0.20;;;25.60;44.50;;;;;;4906549;28;45298;-61
2023/01/04 15:34:13;;;;;;;0.30;0.30;;;25.50;44.60;;;;;;4914499;28;45209;-63
2023/01/04 15:36:39;;;;;;;0.80;0.30;;;25.40;44.70;;;;;;4916240;28;44909;-64
2023/01/04 15:39:05;;;;;;;0.40;0.28;;;25.30;44.80;;;;;;4934311;28;45405;-64
2023/01/04 15:44:15;;;;;;;2.17;0.20;;;25.10;45.10;;;;;;4908133;28;45168;-63
2023/01/04 15:46:41;;;;;;;0.30;0.30;;;25.00;45.20;;;;;;4906716;28;45184;-62
2023/01/04 15:49:06;;;;;;;3.03;0.30;;;24.90;45.30;;;;;;4920462;28;45112;-62
2023/01/04 15:51:32;;;;;;;0.30;0.30;;;24.90;45.40;;;;;;4895092;28;45748;-63
2023/01/04 15:53:57;;;;;;;0.63;0.22;;;24.80;45.50;;;;;;4914237;28;45879;-63
2023/01/04 15:56:23;;;;;;;1.92;0.40;;;24.80;45.60;;;;;;4895518;28;45463;-63
2023/01/04 15:58:53;;;;;;;0.30;0.22;;;24.70;45.60;;;;;;4912419;28;45385;-62
2023/01/04 16:01:19;;;;;;;0.40;0.20;;;24.60;45.80;;;;;;4910994;28;45274;-63
2023/01/04 16:03:44;;;;;;;3.72;0.50;;;24.60;45.90;;;;;;4913260;28;46136;-62
2023/01/04 16:06:11;;;;;;;2.63;0.35;;;24.50;45.90;;;;;;4917413;28;46120;-63
2023/01/04 16:08:37;;;;;;;0.28;0.28;;;24.40;46.00;;;;;;4905518;28;45349;-61
2023/01/04 16:11:12;;;;;;;0.45;0.30;;;24.40;46.00;;;;;;4910230;28;45231;-61
2023/01/04 16:13:38;;;;;;;0.30;0.30;;;24.40;46.10;;;;;;4906225;28;47102;-63
2023/01/04 16:16:04;;;;;;;0.20;0.20;;;24.30;46.20;;;;;;4909232;28;44987;-63
2023/01/04 16:18:30;;;;;;;0.22;0.20;;;24.20;46.30;;;;;;4887985;28;44672;-62
2023/01/04 16:20:55;;;;;;;0.55;0.30;;;24.20;46.40;;;;;;4914022;28;45168;-62
2023/01/04 16:23:21;;;;;;;1.85;0.20;;;24.10;46.50;;;;;;4893542;28;46609;-63
2023/01/04 16:25:46;;;;;;;0.57;0.50;;;24.00;46.60;;;;;;4911487;28;45161;-63
2023/01/04 16:28:12;;;;;;;0.32;0.25;;;24.00;46.70;;;;;;4913569;28;45454;-62
2023/01/04 16:30:37;;;;;;;0.77;0.20;;;23.90;46.70;;;;;;4906661;28;45759;-63
2023/01/04 16:33:03;;;;;;;2.90;0.30;;;23.80;46.80;;;;;;4912499;28;45962;-61
2023/01/04 16:35:28;;;;;;;0.45;0.30;;;23.70;46.90;;;;;;4906961;28;44698;-63
2023/01/04 16:37:54;;;;;;;0.20;0.20;;;23.70;47.00;;;;;;4910133;28;45407;-62
2023/01/04 16:40:20;;;;;;;0.25;0.20;;;23.70;47.10;;;;;;4908951;28;45256;-61
2023/01/04 16:42:50;;;;;;;0.40;0.30;;;23.60;47.20;;;;;;4873809;28;45914;-62
2023/01/04 16:45:16;;;;;;;1.35;0.35;;;23.50;47.20;;;;;;4888476;28;45638;-63
2023/01/04 16:47:42;;;;;;;0.57;0.30;;;23.50;47.30;;;;;;4905277;28;45309;-63
2023/01/04 16:50:08;;;;;;;0.43;0.43;;;23.40;47.40;;;;;;4909444;28;46425;-62
2023/01/04 16:52:34;;;;;;;0.30;0.30;;;23.30;47.40;;;;;;4891795;28;46119;-63
2023/01/04 16:54:59;;;;;;;0.65;0.35;;;23.30;47.50;;;;;;4894819;28;45348;-63
2023/01/04 16:57:25;;;;;;;0.65;0.20;;;23.20;47.60;;;;;;4911395;28;45438;-63
2023/01/04 16:59:51;;;;;;;0.20;0.20;;;23.20;47.70;;;;;;4905310;28;45319;-62
2023/01/04 17:02:16;;;;;;;0.30;0.20;;;23.20;47.70;;;;;;4905823;28;46156;-63
2023/01/04 17:04:42;;;;;;;0.30;0.30;;;23.10;47.70;;;;;;4910726;28;45572;-62
2023/01/04 17:07:07;;;;;;;0.35;0.30;;;23.10;47.90;;;;;;4911437;28;45433;-63
2023/01/04 17:09:33;;;;;;;0.20;0.20;;;23.00;48.00;;;;;;4913012;28;45367;-62
2023/01/04 17:11:59;;;;;;;0.73;0.40;;;22.90;48.00;;;;;;4906609;28;45957;-62
2023/01/04 17:14:29;;;;;;;0.73;0.30;;;22.80;48.10;;;;;;4908136;28;44638;-62
2023/01/04 17:16:54;;;;;;;0.55;0.30;;;22.80;48.20;;;;;;4910830;28;44810;-62
2023/01/04 17:19:20;;;;;;;0.30;0.30;;;22.80;48.20;;;;;;4913096;28;45652;-62